createdAt,value
2022-08-26T00:00:53.770Z,100615.72
2022-08-26T00:03:23.923Z,100610.38
2022-08-26T00:05:52.030Z,100609.69
2022-08-26T00:08:21.619Z,100611.56
2022-08-26T00:10:49.597Z,100610.44
2022-08-26T00:13:19.625Z,100598.34
2022-08-26T00:15:48.924Z,100603.97
2022-08-26T00:18:22.293Z,100600.44
2022-08-26T00:20:51.737Z,100600.84
2022-08-26T00:23:20.797Z,100597.03
2022-08-26T00:25:53.747Z,100597.47
2022-08-26T00:28:22.236Z,100600.06
2022-08-26T00:30:51.731Z,100602.22
2022-08-26T00:33:21.315Z,100604.75
2022-08-26T00:35:50.050Z,100605.53
2022-08-26T00:38:22.887Z,100607.75
2022-08-26T00:40:54.289Z,100610.28
2022-08-26T00:43:24.647Z,100609.34
2022-08-26T00:46:06.851Z,100610.78
2022-08-26T00:48:38.146Z,100620.53
2022-08-26T00:51:15.684Z,100618.09
2022-08-26T00:53:54.215Z,100616.56
2022-08-26T00:56:33.501Z,100630.22
2022-08-26T00:59:05.600Z,100624.63
2022-08-26T01:01:34.954Z,100619.41
2022-08-26T01:04:03.338Z,100624.97
2022-08-26T01:06:31.755Z,100619.88
2022-08-26T01:09:00.461Z,100619.13
2022-08-26T01:11:28.821Z,100618.66
2022-08-26T01:14:00.331Z,100625.66
2022-08-26T01:16:33.543Z,100621.59
2022-08-26T01:19:10.777Z,100613.69
2022-08-26T01:21:50.198Z,100619.88
2022-08-26T01:24:19.724Z,100621.94
2022-08-26T01:26:49.112Z,100617.59
2022-08-26T01:29:20.117Z,100618.53
2022-08-26T01:31:55.720Z,100613.34
2022-08-26T01:34:30.822Z,100615.47
2022-08-26T01:37:14.176Z,100611.66
2022-08-26T01:39:47.990Z,100613.44
2022-08-26T01:42:19.397Z,100610.69
2022-08-26T01:45:18.805Z,100607.06
2022-08-26T01:47:57.118Z,100605.97
2022-08-26T01:50:35.869Z,100606.22
2022-08-26T01:53:10.590Z,100610.72
2022-08-26T01:55:42.922Z,100606.13
2022-08-26T01:58:18.176Z,100610.78
2022-08-26T02:00:48.035Z,100610.72
2022-08-26T02:03:22.051Z,100609.88
2022-08-26T02:05:55.736Z,100609.09
2022-08-26T02:08:48.199Z,100608.31
2022-08-26T02:11:30.047Z,100604.34
2022-08-26T02:14:04.205Z,100608.91
2022-08-26T02:16:38.889Z,100615.47
2022-08-26T02:19:17.464Z,100612.84
2022-08-26T02:22:08.570Z,100611.03
2022-08-26T02:25:16.435Z,100603.31
2022-08-26T02:27:49.272Z,100610.66
2022-08-26T02:30:22.469Z,100606.34
2022-08-26T02:32:52.520Z,100612.97
2022-08-26T02:35:22.639Z,100617.16
2022-08-26T02:37:52.822Z,100610.34
2022-08-26T02:40:26.503Z,100617.06
2022-08-26T02:42:57.087Z,100620.66
2022-08-26T02:45:28.904Z,100621.59
2022-08-26T02:47:59.694Z,100626.75
2022-08-26T02:50:29.114Z,100625.53
2022-08-26T02:52:57.978Z,100630.25
2022-08-26T02:55:27.084Z,100629.25
2022-08-26T02:57:56.263Z,100633.16
2022-08-26T03:00:25.002Z,100631.97
2022-08-26T03:02:54.760Z,100631.00
2022-08-26T03:05:24.179Z,100635.50
2022-08-26T03:07:53.431Z,100632.88
2022-08-26T03:10:23.179Z,100637.56
2022-08-26T03:12:55.344Z,100633.47
2022-08-26T03:15:24.956Z,100645.72
2022-08-26T03:17:53.917Z,100632.63
2022-08-26T03:20:26.004Z,100635.03
2022-08-26T03:22:54.122Z,100633.31
2022-08-26T03:25:26.070Z,100644.53
2022-08-26T03:27:54.456Z,100646.47
2022-08-26T03:30:45.449Z,100648.41
2022-08-26T03:33:14.853Z,100655.91
2022-08-26T03:35:45.600Z,100659.28
2022-08-26T03:38:14.277Z,100658.66
2022-08-26T03:40:44.119Z,100661.78
2022-08-26T03:43:12.958Z,100652.19
2022-08-26T03:45:42.635Z,100656.44
2022-08-26T03:48:11.752Z,100651.00
2022-08-26T03:50:40.121Z,100658.69
2022-08-26T03:53:12.850Z,100655.81
2022-08-26T03:55:43.116Z,100656.72
2022-08-26T03:58:11.696Z,100666.09
2022-08-26T04:00:40.009Z,100665.94
2022-08-26T04:03:09.925Z,100666.47
2022-08-26T04:05:38.617Z,100667.50
2022-08-26T04:08:07.094Z,100663.66
2022-08-26T04:10:38.724Z,100667.16
2022-08-26T04:13:07.145Z,100658.66
2022-08-26T04:15:35.562Z,100656.88
2022-08-26T04:18:04.810Z,100648.00
2022-08-26T04:20:33.060Z,100651.75
2022-08-26T04:23:01.216Z,100645.72
2022-08-26T04:25:29.874Z,100648.09
2022-08-26T04:27:57.990Z,100656.78
2022-08-26T04:30:26.432Z,100642.31
2022-08-26T04:32:54.915Z,100645.31
2022-08-26T04:35:25.974Z,100646.22
2022-08-26T04:37:54.503Z,100637.47
2022-08-26T04:40:23.588Z,100649.56
2022-08-26T04:42:51.805Z,100649.63
2022-08-26T04:45:22.593Z,100652.94
2022-08-26T04:47:56.754Z,100659.44
2022-08-26T04:50:26.561Z,100654.53
2022-08-26T04:52:55.786Z,100656.59
2022-08-26T04:55:38.461Z,100660.84
2022-08-26T04:58:11.591Z,100657.94
2022-08-26T05:00:39.879Z,100658.53
2022-08-26T05:03:10.482Z,100672.00
2022-08-26T05:05:45.603Z,100668.34
2022-08-26T05:08:15.558Z,100671.59
2022-08-26T05:10:55.062Z,100661.53
2022-08-26T05:13:29.631Z,100670.56
2022-08-26T05:16:00.024Z,100672.31
2022-08-26T05:18:30.663Z,100665.91
2022-08-26T05:21:01.592Z,100673.69
2022-08-26T05:23:32.398Z,100682.81
2022-08-26T05:26:01.572Z,100673.03
2022-08-26T05:28:33.260Z,100672.06
2022-08-26T05:31:02.384Z,100671.06
2022-08-26T05:33:30.601Z,100669.38
2022-08-26T05:36:08.187Z,100672.59
2022-08-26T05:38:39.339Z,100678.41
2022-08-26T05:41:16.733Z,100670.69
2022-08-26T05:43:45.428Z,100684.66
2022-08-26T05:46:13.803Z,100674.63
2022-08-26T05:48:44.207Z,100678.16
2022-08-26T05:51:13.384Z,100672.56
2022-08-26T05:53:43.933Z,100673.66
2022-08-26T05:56:26.428Z,100675.22
2022-08-26T05:58:56.272Z,100670.19
2022-08-26T06:01:29.042Z,100675.69
2022-08-26T06:04:01.594Z,100671.78
2022-08-26T06:06:36.510Z,100683.75
2022-08-26T06:09:10.861Z,100675.34
2022-08-26T06:11:40.599Z,100672.13
2022-08-26T06:14:08.910Z,100680.06
2022-08-26T06:16:40.906Z,100686.03
2022-08-26T06:19:11.521Z,100686.59
2022-08-26T06:21:42.510Z,100675.34
2022-08-26T06:24:32.236Z,100678.56
2022-08-26T06:27:03.305Z,100683.00
2022-08-26T06:29:34.384Z,100672.56
2022-08-26T06:32:05.492Z,100681.56
2022-08-26T06:34:34.318Z,100666.38
2022-08-26T06:37:03.629Z,100672.56
2022-08-26T06:39:32.252Z,100678.50
2022-08-26T06:42:06.629Z,100669.72
2022-08-26T06:44:36.731Z,100691.03
2022-08-26T06:47:05.267Z,100682.97
2022-08-26T06:49:33.522Z,100678.91
2022-08-26T06:52:01.589Z,100673.31
2022-08-26T06:54:32.754Z,100674.09
2022-08-26T06:57:01.479Z,100673.53
2022-08-26T06:59:31.461Z,100678.19
2022-08-26T07:02:00.011Z,100680.19
2022-08-26T07:04:28.476Z,100684.28
2022-08-26T07:06:57.080Z,100684.56
2022-08-26T07:09:30.744Z,100693.38
2022-08-26T07:11:59.556Z,100692.97
2022-08-26T07:14:28.307Z,100684.19
2022-08-26T07:16:56.471Z,100678.31
2022-08-26T07:19:30.167Z,100689.31
2022-08-26T07:22:05.382Z,100683.81
2022-08-26T07:24:40.661Z,100690.09
2022-08-26T07:27:15.259Z,100693.97
2022-08-26T07:29:45.606Z,100693.38
2022-08-26T07:32:16.317Z,100684.66
2022-08-26T07:34:44.578Z,100689.66
2022-08-26T07:37:12.855Z,100683.88
2022-08-26T07:39:44.752Z,100681.00
2022-08-26T07:42:15.250Z,100678.53
2022-08-26T07:44:44.624Z,100692.06
2022-08-26T07:47:25.115Z,100682.16
2022-08-26T07:49:57.852Z,100682.47
2022-08-26T07:52:28.435Z,100677.97
2022-08-26T07:54:59.648Z,100679.59
2022-08-26T07:57:29.244Z,100674.28
2022-08-26T07:59:58.682Z,100677.53
2022-08-26T08:02:29.644Z,100677.75
2022-08-26T08:05:00.266Z,100672.75
2022-08-26T08:07:44.590Z,100679.72
2022-08-26T08:10:17.743Z,100674.75
2022-08-26T08:12:48.180Z,100677.28
2022-08-26T08:15:18.313Z,100666.88
2022-08-26T08:17:50.386Z,100662.94
2022-08-26T08:20:20.595Z,100677.69
2022-08-26T08:22:50.435Z,100669.44
2022-08-26T08:25:20.228Z,100665.41
2022-08-26T08:27:51.158Z,100653.25
2022-08-26T08:30:22.686Z,100666.00
2022-08-26T08:32:52.417Z,100658.47
2022-08-26T08:35:22.940Z,100649.19
2022-08-26T08:37:54.646Z,100655.31
2022-08-26T08:40:26.591Z,100652.50
2022-08-26T08:43:10.221Z,100648.47
2022-08-26T08:45:44.040Z,100634.22
2022-08-26T08:48:32.116Z,100642.84
2022-08-26T08:51:28.122Z,100637.03
2022-08-26T08:53:57.252Z,100632.53
2022-08-26T08:56:40.755Z,100631.38
2022-08-26T08:59:20.004Z,100620.00
2022-08-26T09:02:06.725Z,100622.47
2022-08-26T09:05:20.764Z,100620.72
2022-08-26T09:08:03.063Z,100615.69
2022-08-26T09:10:52.957Z,100607.28
2022-08-26T09:13:25.442Z,100613.59
2022-08-26T09:16:03.644Z,100623.53
2022-08-26T09:18:41.127Z,100629.19
2022-08-26T09:21:17.924Z,100632.25
2022-08-26T09:23:49.700Z,100622.47
2022-08-26T09:26:21.464Z,100629.75
2022-08-26T09:29:03.997Z,100632.50
2022-08-26T09:31:38.012Z,100636.06
2022-08-26T09:34:12.753Z,100632.06
2022-08-26T09:36:48.932Z,100634.25
2022-08-26T09:39:37.752Z,100637.53
2022-08-26T09:42:09.608Z,100638.28
2022-08-26T09:44:59.817Z,100633.63
2022-08-26T09:48:01.495Z,100635.25
2022-08-26T09:50:34.026Z,100638.34
2022-08-26T09:53:28.573Z,100643.53
2022-08-26T09:56:28.098Z,100641.72
2022-08-26T09:58:57.960Z,100640.81
2022-08-26T10:01:30.878Z,100639.19
2022-08-26T10:04:14.444Z,100637.06
2022-08-26T10:07:04.111Z,100641.06
2022-08-26T10:09:36.817Z,100644.16
2022-08-26T10:12:12.924Z,100643.03
2022-08-26T10:14:52.491Z,100637.22
2022-08-26T10:17:37.076Z,100644.66
2022-08-26T10:20:23.654Z,100641.28
2022-08-26T10:23:04.234Z,100646.06
2022-08-26T10:25:46.740Z,100650.41
2022-08-26T10:28:26.036Z,100650.94
2022-08-26T10:31:01.918Z,100654.22
2022-08-26T10:33:31.047Z,100646.53
2022-08-26T10:36:12.264Z,100654.75
2022-08-26T10:38:45.434Z,100648.59
2022-08-26T10:41:20.840Z,100645.78
2022-08-26T10:43:59.964Z,100657.50
2022-08-26T10:46:40.156Z,100652.28
2022-08-26T10:49:13.726Z,100655.34
2022-08-26T10:52:16.591Z,100653.06
2022-08-26T10:54:58.642Z,100645.88
2022-08-26T10:57:45.959Z,100644.28
2022-08-26T11:00:40.060Z,100647.34
2022-08-26T11:03:46.632Z,100648.38
2022-08-26T11:06:26.379Z,100651.47
2022-08-26T11:09:01.538Z,100638.47
2022-08-26T11:11:46.958Z,100639.13
2022-08-26T11:14:28.511Z,100634.03
2022-08-26T11:17:00.033Z,100639.34
2022-08-26T11:19:50.587Z,100645.47
2022-08-26T11:22:47.580Z,100637.28
2022-08-26T11:25:18.453Z,100635.13
2022-08-26T11:27:52.474Z,100645.31
2022-08-26T11:30:21.837Z,100635.16
2022-08-26T11:32:55.569Z,100626.97
2022-08-26T11:35:24.677Z,100624.63
2022-08-26T11:38:04.380Z,100626.25
2022-08-26T11:40:40.968Z,100632.75
2022-08-26T11:43:20.133Z,100633.28
2022-08-26T11:45:59.897Z,100637.41
2022-08-26T11:48:31.273Z,100630.50
2022-08-26T11:51:05.615Z,100640.94
2022-08-26T11:53:47.161Z,100627.03
2022-08-26T11:56:32.826Z,100633.19
2022-08-26T11:59:04.321Z,100632.28
2022-08-26T12:01:37.206Z,100624.84
2022-08-26T12:04:08.429Z,100624.28
2022-08-26T12:06:45.931Z,100625.84
2022-08-26T12:09:22.192Z,100616.06
2022-08-26T12:11:51.068Z,100615.56
2022-08-26T12:14:23.747Z,100611.31
2022-08-26T12:16:56.851Z,100617.31
2022-08-26T12:19:35.446Z,100610.72
2022-08-26T12:22:26.250Z,100606.75
2022-08-26T12:25:01.693Z,100609.63
2022-08-26T12:27:40.323Z,100604.63
2022-08-26T12:30:12.221Z,100612.09
2022-08-26T12:32:57.452Z,100599.41
2022-08-26T12:35:29.611Z,100603.09
2022-08-26T12:37:59.029Z,100589.00
2022-08-26T12:40:33.219Z,100599.84
2022-08-26T12:43:03.891Z,100598.72
2022-08-26T12:45:35.457Z,100597.75
2022-08-26T12:48:10.441Z,100592.91
2022-08-26T12:50:46.436Z,100604.34
2022-08-26T12:53:26.845Z,100600.91
2022-08-26T12:56:04.905Z,100592.69
2022-08-26T12:58:35.778Z,100598.41
2022-08-26T13:01:04.918Z,100596.22
2022-08-26T13:03:39.578Z,100595.66
2022-08-26T13:06:17.033Z,100597.63
2022-08-26T13:08:48.902Z,100587.22
2022-08-26T13:11:21.278Z,100585.34
2022-08-26T13:14:12.086Z,100593.00
2022-08-26T13:16:47.486Z,100589.75
2022-08-26T13:19:22.335Z,100587.50
2022-08-26T13:21:56.757Z,100588.19
2022-08-26T13:24:57.429Z,100587.75
2022-08-26T13:27:27.597Z,100596.28
2022-08-26T13:29:58.011Z,100595.78
2022-08-26T13:32:28.410Z,100583.88
2022-08-26T13:34:58.286Z,100590.22
2022-08-26T13:37:34.418Z,100593.44
2022-08-26T13:40:08.459Z,100591.03
2022-08-26T13:42:37.399Z,100586.97
2022-08-26T13:45:18.818Z,100594.75
2022-08-26T13:48:05.515Z,100586.47
2022-08-26T13:50:35.550Z,100591.50
2022-08-26T13:53:04.052Z,100594.25
2022-08-26T13:55:32.089Z,100602.25
2022-08-26T13:58:00.489Z,100592.25
2022-08-26T14:00:29.020Z,100593.56
2022-08-26T14:02:59.116Z,100576.56
2022-08-26T14:05:28.784Z,100593.84
2022-08-26T14:07:57.935Z,100586.28
2022-08-26T14:10:31.150Z,100591.97
2022-08-26T14:12:59.864Z,100598.16
2022-08-26T14:15:29.178Z,100593.06
2022-08-26T14:17:57.410Z,100602.00
2022-08-26T14:20:30.754Z,100607.94
2022-08-26T14:23:15.689Z,100616.84
2022-08-26T14:25:46.049Z,100617.31
2022-08-26T14:28:15.286Z,100609.34
2022-08-26T14:30:47.349Z,100623.38
2022-08-26T14:33:18.384Z,100611.84
2022-08-26T14:35:49.159Z,100621.03
2022-08-26T14:38:20.336Z,100620.69
2022-08-26T14:40:49.412Z,100622.69
2022-08-26T14:43:18.317Z,100622.75
2022-08-26T14:45:49.145Z,100619.34
2022-08-26T14:48:22.730Z,100622.19
2022-08-26T14:50:54.059Z,100633.78
2022-08-26T14:53:45.637Z,100627.53
2022-08-26T14:56:16.814Z,100633.31
2022-08-26T14:58:48.794Z,100629.16
2022-08-26T15:01:40.626Z,100626.28
2022-08-26T15:04:41.075Z,100637.16
2022-08-26T15:07:12.654Z,100631.13
2022-08-26T15:09:44.776Z,100638.38
2022-08-26T15:12:16.334Z,100633.16
2022-08-26T15:14:51.919Z,100637.00
2022-08-26T15:17:25.348Z,100634.19
2022-08-26T15:19:59.265Z,100638.31
2022-08-26T15:22:40.654Z,100639.00
2022-08-26T15:25:09.957Z,100637.03
2022-08-26T15:27:42.831Z,100641.56
2022-08-26T15:30:12.763Z,100635.34
2022-08-26T15:32:42.270Z,100641.28
2022-08-26T15:35:10.374Z,100636.22
2022-08-26T15:37:40.380Z,100639.00
2022-08-26T15:40:10.276Z,100640.09
2022-08-26T15:42:39.439Z,100640.09
2022-08-26T15:45:08.528Z,100634.13
2022-08-26T15:47:58.140Z,100629.88
2022-08-26T15:50:26.534Z,100626.25
2022-08-26T15:52:56.226Z,100629.84
2022-08-26T15:55:27.042Z,100627.28
2022-08-26T15:57:57.976Z,100633.97
2022-08-26T16:00:28.274Z,100630.47
2022-08-26T16:03:02.675Z,100638.47
2022-08-26T16:05:37.311Z,100643.16
2022-08-26T16:08:16.733Z,100630.88
2022-08-26T16:10:51.853Z,100628.56
2022-08-26T16:13:24.081Z,100636.91
2022-08-26T16:15:59.833Z,100634.38
2022-08-26T16:18:30.103Z,100625.47
2022-08-26T16:21:13.773Z,100631.09
2022-08-26T16:23:45.659Z,100626.91
2022-08-26T16:26:19.823Z,100624.91
2022-08-26T16:28:48.586Z,100634.34
2022-08-26T16:31:22.210Z,100632.03
2022-08-26T16:33:53.213Z,100634.44
2022-08-26T16:36:24.593Z,100641.28
2022-08-26T16:38:57.323Z,100646.22
2022-08-26T16:41:34.720Z,100644.78
2022-08-26T16:44:05.598Z,100651.75
2022-08-26T16:46:37.291Z,100650.50
2022-08-26T16:49:07.574Z,100657.91
2022-08-26T16:51:38.321Z,100659.03
2022-08-26T16:54:10.561Z,100655.97
2022-08-26T16:56:45.862Z,100657.09
2022-08-26T16:59:21.207Z,100658.53
2022-08-26T17:01:56.208Z,100664.06
2022-08-26T17:04:29.002Z,100666.94
2022-08-26T17:07:02.751Z,100667.44
2022-08-26T17:09:37.304Z,100670.66
2022-08-26T17:12:12.076Z,100664.06
2022-08-26T17:14:42.652Z,100663.84
2022-08-26T17:17:17.069Z,100669.81
2022-08-26T17:19:48.017Z,100666.94
2022-08-26T17:22:17.875Z,100665.44
2022-08-26T17:24:50.252Z,100672.94
2022-08-26T17:27:22.783Z,100676.09
2022-08-26T17:29:54.755Z,100674.56
2022-08-26T17:32:25.023Z,100680.19
2022-08-26T17:34:54.323Z,100679.06
2022-08-26T17:37:24.406Z,100673.88
2022-08-26T17:39:54.701Z,100688.13
2022-08-26T17:42:31.431Z,100682.16
2022-08-26T17:45:05.262Z,100686.66
2022-08-26T17:47:39.383Z,100678.91
2022-08-26T17:50:15.975Z,100686.44
2022-08-26T17:52:47.214Z,100678.75
2022-08-26T17:55:18.184Z,100685.47
2022-08-26T17:57:53.584Z,100682.25
2022-08-26T18:00:27.045Z,100683.63
2022-08-26T18:03:00.038Z,100677.88
2022-08-26T18:05:32.176Z,100681.28
2022-08-26T18:08:04.475Z,100684.44
2022-08-26T18:10:41.549Z,100687.59
2022-08-26T18:13:12.058Z,100674.88
2022-08-26T18:15:46.119Z,100681.59
2022-08-26T18:18:16.369Z,100695.09
2022-08-26T18:20:46.229Z,100672.59
2022-08-26T18:23:24.802Z,100673.47
2022-08-26T18:25:56.309Z,100681.34
2022-08-26T18:28:25.235Z,100683.66
2022-08-26T18:30:54.157Z,100684.78
2022-08-26T18:33:26.663Z,100682.22
2022-08-26T18:35:59.046Z,100678.16
2022-08-26T18:38:29.036Z,100670.69
2022-08-26T18:41:01.002Z,100682.25
2022-08-26T18:43:29.793Z,100671.22
2022-08-26T18:46:09.869Z,100683.28
2022-08-26T18:48:40.661Z,100674.81
2022-08-26T18:51:16.369Z,100680.06
2022-08-26T18:53:54.159Z,100673.00
2022-08-26T18:56:26.095Z,100678.31
2022-08-26T18:59:02.182Z,100676.06
2022-08-26T19:01:34.780Z,100676.34
2022-08-26T19:04:05.674Z,100672.72
2022-08-26T19:06:36.021Z,100670.34
2022-08-26T19:09:09.338Z,100674.84
2022-08-26T19:11:42.900Z,100674.22
2022-08-26T19:14:20.637Z,100684.91
2022-08-26T19:16:53.785Z,100673.00
2022-08-26T19:19:24.449Z,100675.94
2022-08-26T19:21:53.535Z,100680.28
2022-08-26T19:24:22.986Z,100685.03
2022-08-26T19:27:00.866Z,100691.53
2022-08-26T19:29:34.781Z,100683.44
2022-08-26T19:32:07.766Z,100679.91
2022-08-26T19:34:36.944Z,100677.97
2022-08-26T19:37:07.008Z,100685.88
2022-08-26T19:39:38.593Z,100681.72
2022-08-26T19:42:08.053Z,100680.28
2022-08-26T19:44:56.307Z,100675.44
2022-08-26T19:47:26.959Z,100685.38
2022-08-26T19:49:59.842Z,100679.25
2022-08-26T19:52:36.852Z,100677.56
2022-08-26T19:55:09.578Z,100673.56
2022-08-26T19:57:40.556Z,100673.97
2022-08-26T20:00:15.445Z,100670.84
2022-08-26T20:02:45.855Z,100670.03
2022-08-26T20:05:16.695Z,100664.03
2022-08-26T20:07:45.455Z,100666.53
2022-08-26T20:10:15.638Z,100657.91
2022-08-26T20:12:46.700Z,100651.06
2022-08-26T20:15:20.468Z,100663.69
2022-08-26T20:17:51.052Z,100653.81
2022-08-26T20:20:39.194Z,100657.09
2022-08-26T20:23:09.767Z,100653.22
2022-08-26T20:25:38.319Z,100653.00
2022-08-26T20:28:06.404Z,100659.34
2022-08-26T20:30:34.536Z,100648.78
2022-08-26T20:33:03.112Z,100652.16
2022-08-26T20:35:31.174Z,100654.00
2022-08-26T20:37:59.639Z,100659.97
2022-08-26T20:40:29.716Z,100666.00
2022-08-26T20:42:59.175Z,100675.28
2022-08-26T20:45:27.342Z,100678.47
2022-08-26T20:47:55.778Z,100666.16
2022-08-26T20:50:24.454Z,100671.69
2022-08-26T20:53:10.773Z,100662.63
2022-08-26T20:55:39.913Z,100671.72
2022-08-26T20:58:08.281Z,100688.66
2022-08-26T21:00:38.763Z,100697.25
2022-08-26T21:03:07.963Z,100693.97
2022-08-26T21:05:36.307Z,100696.38
2022-08-26T21:08:04.816Z,100690.78
2022-08-26T21:10:34.169Z,100687.59
2022-08-26T21:13:02.384Z,100685.34
2022-08-26T21:15:30.619Z,100662.34
2022-08-26T21:18:00.986Z,100666.28
2022-08-26T21:20:32.791Z,100655.06
2022-08-26T21:23:12.207Z,100648.34
2022-08-26T21:25:45.933Z,100646.16
2022-08-26T21:28:14.942Z,100645.84
2022-08-26T21:30:44.331Z,100641.13
2022-08-26T21:33:12.671Z,100646.13
2022-08-26T21:35:44.796Z,100656.63
2022-08-26T21:38:14.082Z,100649.63
2022-08-26T21:40:42.923Z,100649.47
2022-08-26T21:43:13.134Z,100657.13
2022-08-26T21:45:57.123Z,100659.06
2022-08-26T21:48:29.593Z,100661.28
2022-08-26T21:51:05.779Z,100651.06
2022-08-26T21:53:34.428Z,100645.53
2022-08-26T21:56:16.478Z,100640.31
2022-08-26T21:58:52.370Z,100639.94
2022-08-26T22:01:24.273Z,100634.47
2022-08-26T22:03:55.916Z,100630.06
2022-08-26T22:06:28.419Z,100639.63
2022-08-26T22:08:57.401Z,100635.31
2022-08-26T22:11:28.416Z,100637.78
2022-08-26T22:13:57.232Z,100629.59
2022-08-26T22:16:28.990Z,100623.75
2022-08-26T22:18:58.845Z,100623.38
2022-08-26T22:21:31.613Z,100619.47
2022-08-26T22:24:00.841Z,100608.94
2022-08-26T22:26:34.150Z,100606.75
2022-08-26T22:29:07.282Z,100615.56
2022-08-26T22:31:37.855Z,100612.16
2022-08-26T22:34:10.919Z,100605.97
2022-08-26T22:36:44.180Z,100606.56
2022-08-26T22:39:14.609Z,100607.16
2022-08-26T22:41:45.733Z,100604.00
2022-08-26T22:44:13.881Z,100607.81
2022-08-26T22:46:44.166Z,100610.75
2022-08-26T22:49:17.029Z,100607.06
2022-08-26T22:51:47.763Z,100603.75
2022-08-26T22:54:17.524Z,100599.06
2022-08-26T22:56:46.709Z,100594.56
2022-08-26T22:59:17.388Z,100576.75
2022-08-26T23:01:48.170Z,100573.53
2022-08-26T23:04:19.089Z,100576.88
2022-08-26T23:06:50.476Z,100571.19
2022-08-26T23:09:19.849Z,100572.88
2022-08-26T23:11:51.881Z,100571.00
2022-08-26T23:14:20.781Z,100571.63
2022-08-26T23:16:50.398Z,100560.34
2022-08-26T23:19:23.616Z,100556.47
2022-08-26T23:21:53.750Z,100556.88
2022-08-26T23:24:23.710Z,100553.75
2022-08-26T23:26:52.837Z,100555.59
2022-08-26T23:29:21.858Z,100557.19
2022-08-26T23:31:50.933Z,100556.19
2022-08-26T23:34:42.349Z,100548.13
2022-08-26T23:37:10.796Z,100543.69
2022-08-26T23:39:39.800Z,100549.06
2022-08-26T23:42:08.938Z,100540.56
2022-08-26T23:44:37.517Z,100549.63
2022-08-26T23:47:07.219Z,100553.78
2022-08-26T23:49:36.460Z,100550.41
2022-08-26T23:52:26.050Z,100541.78
2022-08-26T23:54:54.701Z,100531.56
2022-08-26T23:57:26.197Z,100517.00
2022-08-26T23:59:54.807Z,100523.38
